Terminal Aerodrome Forecast
Issued by NWS Duluth, MN

Home | Current Version | Previous Version | Text Only | Print | Product List | Glossary On
Versions: 1 2 3 4 5 6 7 8 9 10 11 12 13 14 15 16 17 18 19 20 21 22 23 24 25 26 27 28 29 30 31 32 33 34
561
FTUS43 KDLH 270525
TAFDLH
TAF
KDLH 270525Z 2706/2806 30017G23KT P6SM VCSH BKN028 BKN040
     FM270800 29014G24KT P6SM -SHRA BKN017 OVC029
     FM271500 31015G25KT P6SM -SHRA OVC021
     FM272300 33010KT P6SM VCSH OVC015=

USA.gov is the U.S. government's official web portal to all federal, state and local government web resources and services.